Time;durP1;ratioP1;P1;durP2;ratioP2;P2;SDS_P1;SDS_P2;PMS_P1;PMS_P2;Temp;Humidity;BMP_temperature;BMP_pressure;BME280_temperature;BME280_humidity;BME280_pressure;Samples;Min_cycle;Max_cycle;Signal;HPM_P1;HPM_P2
2024/04/17 00:00:52;;;;;;;1.63;1.53;;;8.70;48.90;;;;;;5270169;27;20832;-65
2024/04/17 00:03:17;;;;;;;1.70;1.60;;;8.60;48.80;;;;;;5264025;27;20332;-65
2024/04/17 00:05:45;;;;;;;1.70;1.60;;;8.40;48.60;;;;;;5276483;27;20742;-65
2024/04/17 00:08:13;;;;;;;1.50;1.50;;;8.40;48.60;;;;;;5270054;27;20248;-65
2024/04/17 00:10:41;;;;;;;1.63;1.53;;;8.40;48.60;;;;;;5281661;27;20745;-65
2024/04/17 00:13:07;;;;;;;1.57;1.47;;;8.40;48.60;;;;;;5266936;27;20613;-65
2024/04/17 00:15:35;;;;;;;1.70;1.60;;;8.30;48.60;;;;;;5266994;27;20242;-65
2024/04/17 00:18:00;;;;;;;1.60;1.50;;;8.40;48.60;;;;;;5266224;27;20298;-65
2024/04/17 00:20:28;;;;;;;1.60;1.50;;;8.50;47.80;;;;;;5266114;27;20356;-65
2024/04/17 00:22:54;;;;;;;1.40;1.40;;;8.50;48.00;;;;;;5277612;27;20856;-65
2024/04/17 00:25:22;;;;;;;1.50;1.40;;;8.40;49.10;;;;;;5276084;27;20250;-65
2024/04/17 00:27:48;;;;;;;1.63;1.53;;;8.60;47.70;;;;;;5255041;27;20624;-64
2024/04/17 00:30:16;;;;;;;1.47;1.47;;;8.50;47.90;;;;;;5265461;27;20252;-65
2024/04/17 00:32:41;;;;;;;1.60;1.50;;;8.40;48.10;;;;;;5261210;27;20379;-65
2024/04/17 00:35:10;;;;;;;1.70;1.60;;;8.40;48.00;;;;;;5269699;27;20246;-65
2024/04/17 00:37:35;;;;;;;1.97;1.50;;;8.30;48.10;;;;;;5275844;27;20253;-65
2024/04/17 00:40:03;;;;;;;1.70;1.60;;;8.40;48.40;;;;;;5275013;27;20835;-65
2024/04/17 00:42:29;;;;;;;1.37;1.37;;;8.40;48.30;;;;;;5274730;27;20389;-65
2024/04/17 00:44:57;;;;;;;1.70;1.60;;;8.40;48.10;;;;;;5287854;27;20250;-65
2024/04/17 00:47:23;;;;;;;1.73;1.63;;;8.30;48.60;;;;;;5264338;27;20370;-65
2024/04/17 00:49:51;;;;;;;2.63;1.70;;;8.40;48.60;;;;;;5269684;27;20650;-64
2024/04/17 00:52:17;;;;;;;1.67;1.57;;;8.40;48.50;;;;;;5274851;27;20261;-64
2024/04/17 00:54:45;;;;;;;1.83;1.60;;;8.40;48.60;;;;;;5275048;27;20321;-65
2024/04/17 00:57:11;;;;;;;1.60;1.50;;;8.50;48.10;;;;;;5274940;27;20410;-65
2024/04/17 00:59:39;;;;;;;1.67;1.60;;;8.40;49.30;;;;;;5274894;27;20357;-65
2024/04/17 01:02:04;;;;;;;1.40;1.40;;;8.50;48.70;;;;;;5266982;27;20798;-65
2024/04/17 01:04:32;;;;;;;2.07;1.97;;;8.40;48.60;;;;;;5265594;27;20351;-65
2024/04/17 01:06:58;;;;;;;1.30;1.30;;;8.40;48.60;;;;;;5267816;27;20241;-65
2024/04/17 01:09:26;;;;;;;1.50;1.40;;;8.30;48.60;;;;;;5276986;27;20284;-64
2024/04/17 01:11:52;;;;;;;1.77;1.50;;;8.30;48.90;;;;;;5277698;27;20385;-64
2024/04/17 01:14:20;;;;;;;1.60;1.50;;;8.40;49.10;;;;;;5278461;27;20245;-65
2024/04/17 01:16:46;;;;;;;1.50;1.50;;;8.40;48.60;;;;;;5278224;27;20290;-65
2024/04/17 01:19:14;;;;;;;1.70;1.60;;;8.30;49.20;;;;;;5277751;27;20721;-65
2024/04/17 01:21:39;;;;;;;2.30;1.60;;;8.20;49.30;;;;;;5264459;27;20302;-65
2024/04/17 01:24:07;;;;;;;1.70;1.60;;;8.40;49.10;;;;;;5275314;27;20277;-65
2024/04/17 01:26:33;;;;;;;1.80;1.70;;;8.40;49.00;;;;;;5277875;27;20246;-65
2024/04/17 01:29:01;;;;;;;1.90;1.50;;;8.40;49.10;;;;;;5278126;27;20246;-64
2024/04/17 01:31:26;;;;;;;1.50;1.50;;;8.30;49.90;;;;;;5277431;27;20757;-65
2024/04/17 01:33:55;;;;;;;1.50;1.40;;;8.30;49.80;;;;;;5277999;27;20278;-65
2024/04/17 01:36:20;;;;;;;1.70;1.60;;;8.30;50.00;;;;;;5277721;27;20677;-65
2024/04/17 01:38:48;;;;;;;1.50;1.40;;;8.40;49.40;;;;;;5270640;27;20282;-65
2024/04/17 01:41:14;;;;;;;1.70;1.60;;;8.30;49.40;;;;;;5276373;27;20280;-65
2024/04/17 01:43:42;;;;;;;1.50;1.50;;;8.30;49.30;;;;;;5277151;27;20254;-64
2024/04/17 01:46:07;;;;;;;1.73;1.63;;;8.40;49.40;;;;;;5276995;27;20583;-65
2024/04/17 01:48:35;;;;;;;1.50;1.50;;;8.40;48.60;;;;;;5277501;27;20243;-65
2024/04/17 01:51:01;;;;;;;1.70;1.60;;;8.40;48.90;;;;;;5277685;27;20281;-65
2024/04/17 01:53:29;;;;;;;1.60;1.50;;;8.30;49.50;;;;;;5263348;27;20250;-65
2024/04/17 01:55:55;;;;;;;2.10;2.00;;;8.20;49.40;;;;;;5270726;27;20305;-65
2024/04/17 01:58:25;;;;;;;1.70;1.60;;;8.30;49.50;;;;;;5276396;27;20285;-65
2024/04/17 02:00:50;;;;;;;1.60;1.60;;;8.40;50.00;;;;;;5277968;27;20281;-65
2024/04/17 02:03:18;;;;;;;1.60;1.60;;;8.30;50.00;;;;;;5270817;27;20248;-65
2024/04/17 02:05:44;;;;;;;1.77;1.67;;;8.30;49.90;;;;;;5277779;27;20287;-65
2024/04/17 02:08:13;;;;;;;1.27;1.27;;;8.40;49.40;;;;;;5277097;27;20246;-65
2024/04/17 02:10:38;;;;;;;1.60;1.50;;;8.40;49.60;;;;;;5277935;27;20284;-65
2024/04/17 02:13:06;;;;;;;1.70;1.60;;;8.30;50.10;;;;;;5261658;27;20251;-65
2024/04/17 02:15:32;;;;;;;1.60;1.60;;;8.30;50.10;;;;;;5248643;27;20377;-65
2024/04/17 02:18:00;;;;;;;1.63;1.63;;;8.40;49.60;;;;;;5275800;27;20250;-64
2024/04/17 02:20:25;;;;;;;1.53;1.53;;;8.20;50.70;;;;;;5277175;27;20688;-65
2024/04/17 02:22:53;;;;;;;1.57;1.47;;;7.90;51.90;;;;;;5269804;27;20351;-64
2024/04/17 02:25:19;;;;;;;1.60;1.50;;;7.70;52.50;;;;;;5265093;27;20617;-65
2024/04/17 02:27:47;;;;;;;1.40;1.40;;;7.70;53.20;;;;;;5277378;27;20269;-65
2024/04/17 02:30:12;;;;;;;1.70;1.60;;;7.60;54.00;;;;;;5247370;27;20250;-65
2024/04/17 02:32:40;;;;;;;1.60;1.50;;;7.60;55.00;;;;;;5264161;27;20356;-65
2024/04/17 02:35:06;;;;;;;1.70;1.60;;;7.40;55.60;;;;;;5276806;27;20630;-65
2024/04/17 02:37:34;;;;;;;1.70;1.60;;;7.40;57.10;;;;;;5263317;27;20344;-65
2024/04/17 02:39:59;;;;;;;2.17;1.83;;;7.30;57.70;;;;;;5277408;27;21010;-65
2024/04/17 02:42:27;;;;;;;1.90;1.80;;;7.20;58.20;;;;;;5269697;27;20285;-65
2024/04/17 02:44:53;;;;;;;1.80;1.60;;;7.10;58.10;;;;;;5265661;27;20265;-65
2024/04/17 02:47:21;;;;;;;1.93;1.73;;;6.90;59.20;;;;;;5269016;27;20285;-64
2024/04/17 02:49:46;;;;;;;1.60;1.50;;;7.00;59.90;;;;;;5270821;27;20359;-65
2024/04/17 02:52:15;;;;;;;1.70;1.60;;;7.00;60.50;;;;;;5276591;27;20260;-65
2024/04/17 02:54:40;;;;;;;1.50;1.50;;;7.10;60.20;;;;;;5262332;27;20237;-65
2024/04/17 02:57:08;;;;;;;1.50;1.40;;;7.00;59.90;;;;;;5276869;27;20794;-65
2024/04/17 02:59:36;;;;;;;1.93;1.50;;;6.90;58.60;;;;;;5276796;27;20248;-65
2024/04/17 03:02:02;;;;;;;1.50;1.50;;;6.80;59.60;;;;;;5270938;27;20281;-64
2024/04/17 03:04:30;;;;;;;1.50;1.50;;;6.70;59.90;;;;;;5269857;27;20592;-64
2024/04/17 03:06:55;;;;;;;1.50;1.50;;;6.70;59.50;;;;;;5265346;27;20288;-65
2024/04/17 03:09:23;;;;;;;1.70;1.60;;;6.70;59.80;;;;;;5276604;27;20249;-64
2024/04/17 03:11:49;;;;;;;1.53;1.50;;;6.60;60.40;;;;;;5276258;27;20245;-65
2024/04/17 03:14:17;;;;;;;1.77;1.70;;;6.70;60.20;;;;;;5262158;27;20278;-65
2024/04/17 03:16:43;;;;;;;1.90;1.80;;;6.70;59.70;;;;;;5276273;27;20331;-65
2024/04/17 03:19:11;;;;;;;1.80;1.70;;;6.70;59.60;;;;;;5276227;27;20237;-64
2024/04/17 03:21:36;;;;;;;1.57;1.57;;;6.70;60.10;;;;;;5262218;27;20264;-65
2024/04/17 03:24:05;;;;;;;1.80;1.70;;;6.70;60.00;;;;;;5274895;27;20287;-64
2024/04/17 03:26:30;;;;;;;1.50;1.50;;;6.70;61.10;;;;;;5267218;27;20351;-65
2024/04/17 03:28:58;;;;;;;1.50;1.37;;;6.70;60.00;;;;;;5276346;27;20666;-65
2024/04/17 03:31:24;;;;;;;2.00;1.90;;;6.60;60.20;;;;;;5285785;27;20241;-65
2024/04/17 03:33:52;;;;;;;1.90;1.80;;;6.60;60.40;;;;;;5273209;27;20241;-65
2024/04/17 03:36:18;;;;;;;1.80;1.70;;;6.60;60.40;;;;;;5263751;27;20305;-65
2024/04/17 03:38:46;;;;;;;1.73;1.67;;;6.50;60.60;;;;;;5288611;27;20346;-65
2024/04/17 03:41:14;;;;;;;1.80;1.70;;;6.50;59.60;;;;;;5247717;27;20312;-65
2024/04/17 03:43:40;;;;;;;2.00;1.90;;;6.50;60.30;;;;;;5266312;27;20241;-65
2024/04/17 03:46:08;;;;;;;1.80;1.70;;;6.60;59.90;;;;;;5276137;27;20346;-65
2024/04/17 03:48:36;;;;;;;1.70;1.60;;;6.50;59.80;;;;;;5275518;27;20304;-65
2024/04/17 03:51:02;;;;;;;2.00;1.90;;;6.50;60.00;;;;;;5276032;27;20241;-65
2024/04/17 03:53:30;;;;;;;2.03;1.93;;;6.40;60.20;;;;;;5275926;27;20245;-65
2024/04/17 03:55:58;;;;;;;1.60;1.60;;;6.50;60.80;;;;;;5261605;27;20346;-65
2024/04/17 03:58:24;;;;;;;1.97;1.70;;;6.50;61.50;;;;;;5268509;27;20281;-65
2024/04/17 04:00:52;;;;;;;1.70;1.70;;;6.40;61.60;;;;;;5274884;27;20249;-65
2024/04/17 04:03:18;;;;;;;1.63;1.53;;;6.60;60.40;;;;;;5275276;27;20244;-65
2024/04/17 04:05:46;;;;;;;2.00;1.80;;;6.50;60.50;;;;;;5261937;27;20350;-64
2024/04/17 04:08:12;;;;;;;1.70;1.60;;;6.50;60.80;;;;;;5262936;27;20296;-65
2024/04/17 04:10:40;;;;;;;1.73;1.63;;;6.50;60.50;;;;;;5276016;27;20827;-65
2024/04/17 04:13:05;;;;;;;2.00;1.90;;;6.40;60.20;;;;;;5275156;27;20308;-65
2024/04/17 04:15:34;;;;;;;2.03;1.80;;;6.40;60.20;;;;;;5275299;27;20342;-65
2024/04/17 04:17:59;;;;;;;1.90;1.80;;;6.40;60.20;;;;;;5260313;27;20339;-65
2024/04/17 04:20:27;;;;;;;2.17;2.07;;;6.20;60.00;;;;;;5273360;27;20275;-64
2024/04/17 04:22:53;;;;;;;2.10;1.90;;;6.20;60.60;;;;;;5261376;27;20360;-65
2024/04/17 04:25:21;;;;;;;2.30;2.20;;;6.20;58.90;;;;;;5275001;27;20256;-65
2024/04/17 04:27:47;;;;;;;2.10;2.00;;;6.10;59.60;;;;;;5274804;27;20365;-65
2024/04/17 04:30:15;;;;;;;2.40;2.30;;;5.90;59.20;;;;;;5249508;27;20253;-65
2024/04/17 04:32:40;;;;;;;2.43;2.23;;;5.90;59.70;;;;;;5274791;27;20389;-65
2024/04/17 04:35:09;;;;;;;2.60;2.40;;;5.90;59.90;;;;;;5256125;27;20260;-65
2024/04/17 04:37:34;;;;;;;2.30;2.20;;;5.80;59.70;;;;;;5273060;27;20349;-65
2024/04/17 04:40:03;;;;;;;2.40;2.20;;;5.90;59.10;;;;;;5274409;27;20233;-65
2024/04/17 04:42:28;;;;;;;2.37;2.13;;;5.80;59.30;;;;;;5273607;27;20248;-65
2024/04/17 04:44:57;;;;;;;2.30;2.20;;;5.80;59.40;;;;;;5274707;27;20286;-65
2024/04/17 04:47:22;;;;;;;2.70;2.50;;;5.70;58.70;;;;;;5254708;27;20765;-65
2024/04/17 04:49:50;;;;;;;2.43;2.30;;;5.70;58.90;;;;;;5269937;27;20327;-63
2024/04/17 04:52:16;;;;;;;2.33;2.23;;;5.70;59.20;;;;;;5275357;27;20350;-63
2024/04/17 04:54:44;;;;;;;2.53;2.43;;;5.60;59.50;;;;;;5274598;27;20251;-64
2024/04/17 04:57:10;;;;;;;2.33;2.17;;;5.60;59.50;;;;;;5274897;27;20888;-64
2024/04/17 04:59:38;;;;;;;2.53;2.40;;;5.60;59.50;;;;;;5274578;27;20263;-64
2024/04/17 05:02:03;;;;;;;2.30;2.20;;;5.60;59.50;;;;;;5274694;27;20314;-64
2024/04/17 05:04:32;;;;;;;2.37;2.27;;;5.70;59.60;;;;;;5262223;27;20251;-64
2024/04/17 05:06:57;;;;;;;2.30;2.20;;;5.70;59.60;;;;;;5273060;27;20868;-64
2024/04/17 05:09:26;;;;;;;2.43;2.33;;;5.60;58.40;;;;;;5274602;27;20248;-64
2024/04/17 05:11:52;;;;;;;2.23;2.13;;;5.60;59.50;;;;;;5260425;27;20358;-64
2024/04/17 05:14:20;;;;;;;2.13;2.03;;;5.50;58.90;;;;;;5275202;27;20661;-64
2024/04/17 05:16:46;;;;;;;2.20;2.10;;;5.30;58.50;;;;;;5275061;27;20296;-64
2024/04/17 05:19:14;;;;;;;2.70;2.50;;;5.40;59.40;;;;;;5262766;27;20310;-64
2024/04/17 05:21:39;;;;;;;2.47;2.27;;;5.40;59.80;;;;;;5260926;27;20815;-64
2024/04/17 05:24:08;;;;;;;2.40;2.30;;;5.50;60.50;;;;;;5268894;27;20339;-64
2024/04/17 05:26:33;;;;;;;2.73;2.40;;;5.70;59.60;;;;;;5274839;27;20306;-64
2024/04/17 05:29:01;;;;;;;2.73;2.10;;;5.80;59.70;;;;;;5274122;27;20379;-64
2024/04/17 05:31:27;;;;;;;2.97;2.37;;;5.70;58.70;;;;;;5265200;27;20703;-64
2024/04/17 05:33:55;;;;;;;2.40;2.20;;;5.40;58.80;;;;;;5270144;27;20243;-64
2024/04/17 05:36:21;;;;;;;2.40;2.30;;;5.40;59.30;;;;;;5273892;27;20834;-64
2024/04/17 05:38:49;;;;;;;2.30;2.20;;;5.40;59.30;;;;;;5268284;27;20247;-64
2024/04/17 05:41:15;;;;;;;2.30;2.20;;;5.40;58.60;;;;;;5270065;27;20791;-64
2024/04/17 05:43:43;;;;;;;2.57;2.47;;;5.30;58.50;;;;;;5268869;27;20251;-64
2024/04/17 05:46:08;;;;;;;2.43;2.33;;;5.20;59.70;;;;;;5273089;27;20240;-64
2024/04/17 05:48:36;;;;;;;3.30;2.60;;;5.20;59.20;;;;;;5259911;27;20741;-64
2024/04/17 05:51:02;;;;;;;2.53;2.43;;;5.30;58.90;;;;;;5271514;27;20350;-64
2024/04/17 05:53:30;;;;;;;2.60;2.50;;;5.20;59.70;;;;;;5273416;27;20244;-64
2024/04/17 05:55:58;;;;;;;2.90;2.70;;;5.20;59.70;;;;;;5276856;27;20391;-64
2024/04/17 05:58:24;;;;;;;2.50;2.40;;;5.30;61.10;;;;;;5276818;27;20370;-64
2024/04/17 06:00:52;;;;;;;2.50;2.40;;;5.60;59.80;;;;;;5276632;27;20235;-63
2024/04/17 06:03:18;;;;;;;2.90;2.70;;;5.50;59.60;;;;;;5267120;27;20291;-64
2024/04/17 06:05:46;;;;;;;3.13;2.93;;;5.50;59.40;;;;;;5272429;27;20289;-64
2024/04/17 06:08:11;;;;;;;2.53;2.43;;;5.30;59.90;;;;;;5263300;27;20858;-64
2024/04/17 06:10:40;;;;;;;3.13;2.63;;;5.40;60.40;;;;;;5276760;27;20248;-64
2024/04/17 06:13:05;;;;;;;3.10;2.90;;;5.40;59.90;;;;;;5276335;27;20248;-64
2024/04/17 06:15:35;;;;;;;2.97;2.77;;;5.50;60.00;;;;;;5259768;27;20580;-64
2024/04/17 06:18:00;;;;;;;2.37;2.27;;;5.70;59.80;;;;;;5262168;27;20291;-64
2024/04/17 06:20:29;;;;;;;2.60;2.50;;;5.60;59.50;;;;;;5283721;27;20244;-63
2024/04/17 06:22:55;;;;;;;2.90;2.70;;;5.50;59.80;;;;;;5260718;26;20731;-64
2024/04/17 06:25:24;;;;;;;2.47;2.23;;;5.70;60.80;;;;;;5278552;27;20286;-64
2024/04/17 06:27:49;;;;;;;2.63;2.53;;;5.90;59.70;;;;;;5266597;27;20255;-64
2024/04/17 06:30:18;;;;;;;2.43;2.33;;;5.90;59.70;;;;;;5260357;27;20364;-64
2024/04/17 06:32:43;;;;;;;2.57;2.40;;;5.80;60.00;;;;;;5288028;27;20311;-64
2024/04/17 06:35:11;;;;;;;2.40;2.30;;;5.80;60.20;;;;;;5268407;27;20358;-64
2024/04/17 06:37:37;;;;;;;2.10;2.00;;;5.70;60.80;;;;;;5283976;27;20352;-64
2024/04/17 06:40:05;;;;;;;2.80;2.60;;;5.80;60.90;;;;;;5266184;27;20264;-63
2024/04/17 06:42:31;;;;;;;2.10;2.00;;;5.90;61.50;;;;;;5247490;27;20370;-64
2024/04/17 06:45:01;;;;;;;36.90;33.00;;;5.90;61.00;;;;;;5256213;27;20256;-64
2024/04/17 06:47:27;;;;;;;9.77;8.03;;;6.00;61.80;;;;;;5262804;27;20346;-64
2024/04/17 06:49:55;;;;;;;8.50;7.50;;;6.10;61.50;;;;;;5257147;27;21125;-64
2024/04/17 06:52:21;;;;;;;4.30;3.90;;;6.20;61.10;;;;;;5284583;27;20586;-64
2024/04/17 06:54:49;;;;;;;3.37;3.07;;;6.30;60.60;;;;;;5271179;27;20354;-63
2024/04/17 06:57:15;;;;;;;2.80;2.60;;;6.20;61.80;;;;;;5269676;27;20698;-64
2024/04/17 06:59:43;;;;;;;2.33;2.23;;;6.20;61.00;;;;;;5265229;27;20248;-64
2024/04/17 07:02:10;;;;;;;2.60;2.40;;;6.30;61.10;;;;;;5270685;27;20328;-69
2024/04/17 07:04:38;;;;;;;2.47;2.33;;;6.40;63.00;;;;;;5268155;27;20845;-64
2024/04/17 07:07:04;;;;;;;3.43;3.13;;;6.40;62.00;;;;;;5268157;27;20324;-63
2024/04/17 07:09:32;;;;;;;2.60;2.50;;;6.40;61.80;;;;;;5275609;27;21123;-65
2024/04/17 07:11:58;;;;;;;6.43;4.80;;;6.30;61.30;;;;;;5278380;27;20854;-63
2024/04/17 07:14:26;;;;;;;4.47;4.00;;;6.40;62.80;;;;;;5280818;27;20257;-63
2024/04/17 07:16:52;;;;;;;4.20;3.80;;;6.60;62.50;;;;;;5268014;27;20387;-63
2024/04/17 07:19:24;;;;;;;4.60;4.20;;;6.70;61.20;;;;;;5275759;27;20755;-63
2024/04/17 07:21:50;;;;;;;3.20;3.00;;;6.70;62.50;;;;;;5265509;27;20300;-63
2024/04/17 07:24:18;;;;;;;2.07;1.97;;;6.80;62.60;;;;;;5273814;27;20253;-63
2024/04/17 07:26:43;;;;;;;2.40;2.30;;;6.70;61.30;;;;;;5264135;27;20317;-63
2024/04/17 07:29:12;;;;;;;2.17;2.07;;;6.70;61.70;;;;;;5267714;27;20707;-63
2024/04/17 07:31:37;;;;;;;2.40;2.30;;;6.90;62.50;;;;;;5254738;27;20760;-63
2024/04/17 07:34:05;;;;;;;2.23;2.13;;;7.00;61.40;;;;;;5282761;27;20362;-63
2024/04/17 07:36:31;;;;;;;2.57;2.20;;;7.00;61.40;;;;;;5276214;27;20300;-63
2024/04/17 07:38:59;;;;;;;2.10;2.00;;;7.00;62.50;;;;;;5286354;27;20249;-63
2024/04/17 07:41:25;;;;;;;2.20;2.10;;;7.00;62.40;;;;;;5286506;27;20428;-63
2024/04/17 07:43:53;;;;;;;4.00;3.67;;;7.10;61.60;;;;;;5275254;27;20300;-62
2024/04/17 07:46:19;;;;;;;4.60;4.20;;;7.10;61.80;;;;;;5265024;27;20333;-63
2024/04/17 07:48:47;;;;;;;5.00;4.20;;;7.00;62.60;;;;;;5274879;27;20242;-63
2024/04/17 07:51:13;;;;;;;3.97;3.67;;;6.90;61.70;;;;;;5272050;27;20305;-63
2024/04/17 07:53:41;;;;;;;3.33;3.10;;;7.00;63.40;;;;;;5270523;27;20727;-62
2024/04/17 07:56:06;;;;;;;2.83;2.60;;;7.20;62.70;;;;;;5274494;27;20721;-63
2024/04/17 07:58:35;;;;;;;3.00;2.80;;;7.20;60.90;;;;;;5291485;27;20256;-63
2024/04/17 08:01:00;;;;;;;2.70;2.60;;;7.20;60.40;;;;;;5288177;27;20238;-63
2024/04/17 08:03:28;;;;;;;3.33;2.80;;;7.10;61.70;;;;;;5265335;27;20710;-64
2024/04/17 08:05:54;;;;;;;3.23;3.03;;;7.20;61.20;;;;;;5289098;27;20376;-64
2024/04/17 08:08:22;;;;;;;2.90;2.70;;;7.20;61.70;;;;;;5275600;27;20772;-64
2024/04/17 08:10:48;;;;;;;2.27;2.07;;;7.20;60.90;;;;;;5260076;27;20254;-64
2024/04/17 08:13:16;;;;;;;4.17;3.83;;;7.10;61.80;;;;;;5261617;27;20866;-64
2024/04/17 08:15:42;;;;;;;3.33;3.13;;;7.10;63.00;;;;;;5276134;27;20589;-64
2024/04/17 08:18:10;;;;;;;4.07;3.77;;;7.30;61.60;;;;;;5273742;27;20281;-65
2024/04/17 08:20:36;;;;;;;2.90;2.70;;;7.30;62.70;;;;;;5282816;27;20312;-64
2024/04/17 08:23:04;;;;;;;2.33;1.90;;;7.40;61.40;;;;;;5265944;26;20243;-64
2024/04/17 08:25:29;;;;;;;2.20;2.10;;;7.60;61.30;;;;;;5275192;27;20246;-64
2024/04/17 08:27:58;;;;;;;2.20;2.10;;;7.70;61.20;;;;;;5262270;27;20876;-64
2024/04/17 08:30:23;;;;;;;2.70;2.50;;;7.80;60.70;;;;;;5263875;27;20511;-64
2024/04/17 08:32:51;;;;;;;2.40;2.30;;;7.90;60.90;;;;;;5260104;27;20266;-64
2024/04/17 08:35:17;;;;;;;3.77;3.47;;;8.00;61.60;;;;;;5272868;27;20738;-64
2024/04/17 08:37:45;;;;;;;2.30;2.20;;;8.10;61.20;;;;;;5264200;27;20244;-64
2024/04/17 08:40:11;;;;;;;2.40;2.20;;;8.20;59.70;;;;;;5288628;27;20246;-63
2024/04/17 08:42:39;;;;;;;2.00;1.90;;;8.20;59.70;;;;;;5259623;27;20656;-62
2024/04/17 08:45:05;;;;;;;2.10;2.00;;;8.20;60.80;;;;;;5289678;27;20347;-63
2024/04/17 08:47:33;;;;;;;1.93;1.83;;;8.10;60.10;;;;;;5267794;27;20253;-63
2024/04/17 08:49:59;;;;;;;2.17;1.97;;;8.00;58.70;;;;;;5272481;27;20699;-63
2024/04/17 08:52:27;;;;;;;2.03;1.93;;;7.70;60.20;;;;;;5261879;27;20832;-63
2024/04/17 08:54:52;;;;;;;1.90;1.80;;;7.60;61.30;;;;;;5274696;27;20313;-63
2024/04/17 08:57:20;;;;;;;2.03;1.93;;;7.60;62.40;;;;;;5275361;27;20352;-62
2024/04/17 08:59:46;;;;;;;2.10;2.00;;;7.70;62.10;;;;;;5276144;27;20253;-63
2024/04/17 09:02:14;;;;;;;2.17;2.07;;;7.70;61.40;;;;;;5275136;27;20344;-63
2024/04/17 09:04:40;;;;;;;2.60;2.40;;;7.80;62.10;;;;;;5274276;27;20373;-63
2024/04/17 09:07:08;;;;;;;2.40;2.20;;;8.10;61.10;;;;;;5260669;27;20259;-62
2024/04/17 09:09:34;;;;;;;2.17;2.07;;;8.40;60.90;;;;;;5261965;27;20236;-63
2024/04/17 09:12:02;;;;;;;2.60;2.50;;;8.80;60.00;;;;;;5271709;27;20356;-63
2024/04/17 09:14:28;;;;;;;2.70;2.50;;;9.20;58.20;;;;;;5275027;27;20734;-63
2024/04/17 09:16:56;;;;;;;2.70;2.50;;;9.20;58.20;;;;;;5285637;27;20348;-63
2024/04/17 09:19:21;;;;;;;2.87;2.20;;;9.10;56.30;;;;;;5274740;27;20363;-63
2024/04/17 09:21:49;;;;;;;2.77;2.57;;;9.30;57.60;;;;;;5274368;27;20240;-63
2024/04/17 09:24:15;;;;;;;2.60;2.40;;;9.60;56.50;;;;;;5274099;27;20287;-63
2024/04/17 09:26:43;;;;;;;2.80;2.60;;;9.40;56.70;;;;;;5257044;27;20358;-63
2024/04/17 09:29:09;;;;;;;3.53;3.33;;;9.10;56.90;;;;;;5275410;27;20303;-63
2024/04/17 09:31:37;;;;;;;3.20;3.00;;;9.10;55.00;;;;;;5278305;27;20244;-63
2024/04/17 09:34:03;;;;;;;3.00;2.80;;;9.10;55.70;;;;;;5278352;27;20299;-63
2024/04/17 09:36:31;;;;;;;3.67;3.40;;;8.90;54.70;;;;;;5278030;27;20257;-63
2024/04/17 09:38:57;;;;;;;3.40;3.10;;;9.00;55.80;;;;;;5277907;27;20681;-63
2024/04/17 09:41:25;;;;;;;3.00;2.80;;;9.20;55.80;;;;;;5271470;27;20247;-63
2024/04/17 09:43:51;;;;;;;3.00;2.80;;;9.20;55.00;;;;;;5266083;27;20237;-63
2024/04/17 09:46:19;;;;;;;3.07;2.87;;;9.20;54.10;;;;;;5260657;27;20292;-63
2024/04/17 09:48:49;;;;;;;3.07;2.87;;;9.90;54.60;;;;;;5260756;27;20371;-63
2024/04/17 09:51:17;;;;;;;3.30;3.10;;;10.10;53.10;;;;;;5260183;27;20359;-66
2024/04/17 09:53:43;;;;;;;3.67;3.40;;;10.00;51.00;;;;;;5282994;26;20281;-63
2024/04/17 09:56:12;;;;;;;3.43;3.23;;;10.00;51.80;;;;;;5269767;27;20557;-63
2024/04/17 09:58:37;;;;;;;3.20;3.00;;;9.60;52.70;;;;;;5279355;27;20341;-63
2024/04/17 10:01:06;;;;;;;4.17;3.80;;;9.50;53.40;;;;;;5272717;27;20260;-63
2024/04/17 10:03:31;;;;;;;3.73;3.43;;;9.90;53.00;;;;;;5259533;27;20304;-63
2024/04/17 10:05:59;;;;;;;3.07;2.87;;;10.20;52.10;;;;;;5272104;27;20238;-63
2024/04/17 10:08:25;;;;;;;4.93;4.10;;;10.50;50.50;;;;;;5272654;27;20247;-63
2024/04/17 10:10:53;;;;;;;3.67;3.37;;;10.70;51.20;;;;;;5292959;27;20683;-62
2024/04/17 10:13:19;;;;;;;3.57;3.27;;;11.00;48.90;;;;;;5275301;27;20812;-63
2024/04/17 10:15:47;;;;;;;3.30;3.00;;;11.40;49.20;;;;;;5272763;27;20266;-63
2024/04/17 10:18:12;;;;;;;3.57;3.27;;;11.90;49.00;;;;;;5263154;27;20708;-63
2024/04/17 10:20:41;;;;;;;3.50;3.20;;;12.20;45.40;;;;;;5275085;27;20348;-63
2024/04/17 10:23:06;;;;;;;2.87;2.67;;;12.30;46.20;;;;;;5276444;27;20815;-63
2024/04/17 10:25:34;;;;;;;3.50;3.00;;;12.60;45.10;;;;;;5277792;27;20347;-63
2024/04/17 10:28:00;;;;;;;3.00;2.80;;;12.50;44.30;;;;;;5277241;27;20319;-63
2024/04/17 10:30:28;;;;;;;3.10;2.90;;;12.00;44.60;;;;;;5276288;27;20344;-63
2024/04/17 10:32:54;;;;;;;3.37;3.07;;;11.40;44.60;;;;;;5274596;27;20405;-63
2024/04/17 10:35:26;;;;;;;3.37;3.10;;;11.60;44.00;;;;;;5267301;27;20738;-62
2024/04/17 10:37:52;;;;;;;2.67;2.57;;;12.00;42.90;;;;;;5270590;27;20248;-63
2024/04/17 10:40:21;;;;;;;3.13;2.93;;;12.10;42.30;;;;;;5288998;27;20285;-63
2024/04/17 10:42:46;;;;;;;2.93;2.63;;;12.00;43.60;;;;;;5274593;27;20781;-63
2024/04/17 10:45:14;;;;;;;3.20;2.90;;;11.90;44.70;;;;;;5263263;26;20348;-63
2024/04/17 10:47:40;;;;;;;3.97;3.13;;;11.70;42.60;;;;;;5263462;27;20252;-63
2024/04/17 10:50:08;;;;;;;2.83;2.63;;;11.20;43.60;;;;;;5274518;27;20705;-67
2024/04/17 10:52:34;;;;;;;3.07;2.63;;;11.10;44.10;;;;;;5278764;27;20306;-64
2024/04/17 10:55:02;;;;;;;3.17;2.80;;;10.90;43.90;;;;;;5299447;26;20598;-64
2024/04/17 10:57:28;;;;;;;3.27;3.00;;;10.90;46.10;;;;;;5268012;27;20254;-63
2024/04/17 10:59:56;;;;;;;3.70;3.40;;;10.70;45.60;;;;;;5278855;27;20246;-63
2024/04/17 11:02:22;;;;;;;3.67;3.40;;;10.60;45.50;;;;;;5270619;27;20251;-63
2024/04/17 11:04:50;;;;;;;3.70;3.20;;;10.60;45.50;;;;;;5268526;27;20322;-63
2024/04/17 11:07:16;;;;;;;3.30;3.10;;;11.20;45.20;;;;;;5274439;27;20639;-65
2024/04/17 11:09:44;;;;;;;3.40;3.20;;;11.30;45.80;;;;;;5280805;26;20251;-63
2024/04/17 11:12:10;;;;;;;3.60;3.30;;;10.70;47.10;;;;;;5262155;27;20314;-63
2024/04/17 11:14:38;;;;;;;3.80;3.50;;;10.40;47.80;;;;;;5262585;27;20345;-63
2024/04/17 11:17:04;;;;;;;3.57;3.27;;;10.30;49.30;;;;;;5291031;27;20275;-63
2024/04/17 11:19:32;;;;;;;3.30;3.10;;;10.30;48.30;;;;;;5274094;27;20867;-63
2024/04/17 11:21:57;;;;;;;3.23;3.03;;;11.30;45.70;;;;;;5264409;27;20323;-63
2024/04/17 11:24:26;;;;;;;3.47;3.17;;;12.60;43.70;;;;;;5272956;27;20330;-63
2024/04/17 11:26:51;;;;;;;2.70;2.50;;;14.60;39.30;;;;;;5270509;27;20239;-64
2024/04/17 11:29:19;;;;;;;4.63;4.17;;;15.60;35.50;;;;;;5275753;27;20730;-63
2024/04/17 11:31:45;;;;;;;3.20;2.90;;;13.90;36.90;;;;;;5271176;27;20354;-64
2024/04/17 11:34:13;;;;;;;2.43;2.30;;;14.50;38.10;;;;;;5273122;27;20265;-63
2024/04/17 11:36:39;;;;;;;2.50;2.30;;;13.10;39.90;;;;;;5272675;27;20410;-64
2024/04/17 11:39:07;;;;;;;2.97;2.77;;;12.40;40.70;;;;;;5284200;27;20854;-64
2024/04/17 11:41:32;;;;;;;2.67;2.47;;;15.60;35.80;;;;;;5263657;27;20417;-64
2024/04/17 11:44:01;;;;;;;2.30;2.20;;;20.50;35.80;;;;;;5262437;27;20282;-64
2024/04/17 11:46:26;;;;;;;3.17;2.45;;;23.10;32.00;;;;;;5272625;27;20348;-64
2024/04/17 11:48:54;;;;;;;1.70;1.60;;;23.90;34.60;;;;;;5286993;27;20619;-64
2024/04/17 11:51:20;;;;;;;1.83;1.73;;;25.00;27.60;;;;;;5274878;27;20318;-64
2024/04/17 11:53:48;;;;;;;1.60;1.50;;;25.30;22.70;;;;;;5275252;27;20239;-64
2024/04/17 11:56:14;;;;;;;1.60;1.50;;;23.80;23.40;;;;;;5260738;27;20315;-65
2024/04/17 11:58:45;;;;;;;2.05;1.73;;;18.90;29.00;;;;;;5275069;27;20352;-64
2024/04/17 12:01:11;;;;;;;3.85;3.55;;;15.90;32.40;;;;;;5273908;26;20243;-64
2024/04/17 12:03:39;;;;;;;2.40;2.20;;;14.10;35.80;;;;;;5280090;27;20285;-64
2024/04/17 12:06:04;;;;;;;2.13;1.92;;;13.00;38.70;;;;;;5256934;27;20249;-64
2024/04/17 12:08:33;;;;;;;3.17;2.90;;;12.40;39.40;;;;;;5276296;27;20704;-64
2024/04/17 12:10:58;;;;;;;3.33;2.60;;;12.10;40.20;;;;;;5273003;27;20254;-64
2024/04/17 12:13:26;;;;;;;20.27;14.63;;;12.40;40.40;;;;;;5263910;27;20301;-64
2024/04/17 12:15:52;;;;;;;5.37;4.87;;;12.60;41.70;;;;;;5266975;27;20745;-63
2024/04/17 12:18:20;;;;;;;4.47;3.70;;;13.20;40.30;;;;;;5276234;27;20357;-63
2024/04/17 12:20:46;;;;;;;2.80;2.60;;;13.40;39.60;;;;;;5275419;27;20301;-63
2024/04/17 12:23:18;;;;;;;2.80;2.60;;;13.60;39.90;;;;;;5274892;27;20253;-64
2024/04/17 12:28:30;;;;;;;3.57;3.27;;;12.60;37.10;;;;;;5277622;27;20618;-63
2024/04/17 12:31:00;;;;;;;3.20;2.90;;;12.10;40.10;;;;;;5259952;27;20250;-63
2024/04/17 12:33:29;;;;;;;5.17;3.83;;;12.00;41.30;;;;;;5274396;27;20282;-64
2024/04/17 12:35:57;;;;;;;4.30;3.90;;;11.30;45.70;;;;;;5268216;27;20859;-64
2024/04/17 12:38:26;;;;;;;3.67;3.37;;;10.70;46.70;;;;;;5268601;27;20305;-63
2024/04/17 12:40:54;;;;;;;4.10;3.40;;;10.30;48.50;;;;;;5263342;27;20750;-63
2024/04/17 12:43:20;;;;;;;3.93;3.53;;;10.20;50.70;;;;;;5255092;27;20251;-64
2024/04/17 12:45:48;;;;;;;3.20;2.93;;;10.20;50.50;;;;;;5268963;27;20290;-64
2024/04/17 12:48:16;;;;;;;2.63;2.47;;;10.20;51.00;;;;;;5267541;27;20298;-63
2024/04/17 12:50:44;;;;;;;2.63;2.43;;;9.70;51.70;;;;;;5270773;27;20246;-64
2024/04/17 12:53:13;;;;;;;2.20;2.00;;;9.50;52.30;;;;;;5266507;27;20725;-64
2024/04/17 12:55:41;;;;;;;2.40;2.30;;;9.60;52.30;;;;;;5279797;27;20375;-64